Time;durP1;ratioP1;P1;durP2;ratioP2;P2;SDS_P1;SDS_P2;PMS_P1;PMS_P2;Temp;Humidity;BMP_temperature;BMP_pressure;BME280_temperature;BME280_humidity;BME280_pressure;Samples;Min_cycle;Max_cycle;Signal;HPM_P1;HPM_P2
2023/09/16 00:00:16;;;;;;;7.53;2.05;;;;;;;;;;5075131;28;20219;-47
2023/09/16 00:03:04;;;;;;;3.08;1.67;;;;;;;;;;5074861;28;20272;-46
2023/09/16 00:05:32;;;;;;;5.70;2.08;;;;;;;;;;5075195;28;20196;-46
2023/09/16 00:07:59;;;;;;;4.75;1.55;;;;;;;;;;5075244;28;20244;-47
2023/09/16 00:10:43;;;;;;;3.20;1.80;;;;;;;;;;5075091;28;20176;-47
2023/09/16 00:13:10;;;;;;;4.60;2.00;;;;;;;;;;5074813;28;20223;-49
2023/09/16 00:15:37;;;;;;;3.03;1.85;;;;;;;;;;5074639;28;20206;-47
2023/09/16 00:18:04;;;;;;;3.90;1.92;;;;;;;;;;5074801;28;20757;-46
2023/09/16 00:20:32;;;;;;;4.00;1.77;;;;;;;;;;5075384;28;20208;-47
2023/09/16 00:22:59;;;;;;;5.22;1.90;;;;;;;;;;5074662;28;20589;-48
2023/09/16 00:25:26;;;;;;;4.18;1.95;;;;;;;;;;5074518;28;20676;-47
2023/09/16 00:27:54;;;;;;;4.50;2.17;;;;;;;;;;5074930;28;20234;-47
2023/09/16 00:30:22;;;;;;;4.57;2.15;;;;;;;;;;5073454;28;20199;-47
2023/09/16 00:32:49;;;;;;;3.90;2.08;;;;;;;;;;5074270;28;20239;-47
2023/09/16 00:35:16;;;;;;;3.72;1.95;;;;;;;;;;5074527;28;20210;-46
2023/09/16 00:37:43;;;;;;;4.90;2.00;;;;;;;;;;5074691;28;20261;-48
2023/09/16 00:40:11;;;;;;;3.53;1.90;;;;;;;;;;5074526;28;20199;-47
2023/09/16 00:42:38;;;;;;;3.22;1.85;;;;;;;;;;5074404;28;20208;-47
2023/09/16 00:45:10;;;;;;;3.53;1.88;;;;;;;;;;5074113;28;20339;-47
2023/09/16 00:47:40;;;;;;;3.90;2.00;;;;;;;;;;5073247;28;20204;-48
2023/09/16 00:50:09;;;;;;;7.45;1.85;;;;;;;;;;5073398;28;20211;-46
2023/09/16 00:52:38;;;;;;;5.30;2.15;;;;;;;;;;5074337;28;20314;-48
2023/09/16 00:55:05;;;;;;;5.68;1.88;;;;;;;;;;5072837;28;20656;-49
2023/09/16 00:57:33;;;;;;;3.67;1.88;;;;;;;;;;5072900;28;20268;-48
2023/09/16 01:00:00;;;;;;;3.80;2.17;;;;;;;;;;5073024;28;20675;-50
2023/09/16 01:02:28;;;;;;;3.53;1.90;;;;;;;;;;5073799;28;20253;-47
2023/09/16 01:04:56;;;;;;;6.28;2.33;;;;;;;;;;5073818;28;20253;-47
2023/09/16 01:07:24;;;;;;;6.22;2.00;;;;;;;;;;5073713;28;20214;-50
2023/09/16 01:09:52;;;;;;;6.00;2.25;;;;;;;;;;5055821;28;20257;-47
2023/09/16 01:12:19;;;;;;;7.47;2.00;;;;;;;;;;5072517;28;20211;-46
2023/09/16 01:14:46;;;;;;;2.60;1.67;;;;;;;;;;5072405;28;20203;-51
2023/09/16 01:17:24;;;;;;;2.90;1.75;;;;;;;;;;5072396;28;20289;-47
2023/09/16 01:20:15;;;;;;;5.20;2.28;;;;;;;;;;5055857;28;20656;-47
2023/09/16 01:22:45;;;;;;;3.70;2.10;;;;;;;;;;5073495;28;20230;-47
2023/09/16 01:25:17;;;;;;;4.47;2.10;;;;;;;;;;5072665;28;20203;-46
2023/09/16 01:27:44;;;;;;;3.60;1.95;;;;;;;;;;5073847;28;20211;-46
2023/09/16 01:30:14;;;;;;;3.88;2.50;;;;;;;;;;5072211;28;20210;-48
2023/09/16 01:32:56;;;;;;;3.28;2.05;;;;;;;;;;5073626;28;20230;-47
2023/09/16 01:35:24;;;;;;;6.85;2.40;;;;;;;;;;5055797;28;20199;-48
2023/09/16 01:37:51;;;;;;;4.85;2.47;;;;;;;;;;5055570;28;20202;-48
2023/09/16 01:40:19;;;;;;;3.97;1.80;;;;;;;;;;5073551;28;20196;-47
2023/09/16 01:42:47;;;;;;;6.35;1.90;;;;;;;;;;5071789;28;20207;-47
2023/09/16 01:45:14;;;;;;;6.53;2.60;;;;;;;;;;5072194;28;20203;-49
2023/09/16 01:47:43;;;;;;;4.93;2.10;;;;;;;;;;5073059;28;20209;-47
2023/09/16 01:50:11;;;;;;;6.43;1.88;;;;;;;;;;5072153;28;20207;-49
2023/09/16 01:52:38;;;;;;;4.50;2.25;;;;;;;;;;5073002;28;20235;-49
2023/09/16 01:55:06;;;;;;;3.65;2.03;;;;;;;;;;5071793;28;20696;-49
2023/09/16 01:57:33;;;;;;;4.28;1.85;;;;;;;;;;5073244;28;20249;-46
2023/09/16 02:00:01;;;;;;;6.60;2.30;;;;;;;;;;5072014;28;20256;-47
2023/09/16 02:02:28;;;;;;;4.05;2.33;;;;;;;;;;5073008;28;20644;-47
2023/09/16 02:04:55;;;;;;;3.88;2.20;;;;;;;;;;5073257;28;20560;-48
2023/09/16 02:07:23;;;;;;;3.17;2.17;;;;;;;;;;5072327;28;20195;-47
2023/09/16 02:09:52;;;;;;;4.80;2.30;;;;;;;;;;5071653;28;20203;-47
2023/09/16 02:12:19;;;;;;;4.53;2.03;;;;;;;;;;5072763;28;20223;-48
2023/09/16 02:14:49;;;;;;;9.35;2.15;;;;;;;;;;5071870;28;20227;-47
2023/09/16 02:17:17;;;;;;;5.35;2.28;;;;;;;;;;5072033;28;20330;-47
2023/09/16 02:19:45;;;;;;;5.93;2.10;;;;;;;;;;5071328;28;20207;-47
2023/09/16 02:22:12;;;;;;;5.05;2.00;;;;;;;;;;5055832;28;20204;-46
2023/09/16 02:24:39;;;;;;;4.75;2.33;;;;;;;;;;5076961;28;20215;-47
2023/09/16 02:27:08;;;;;;;4.25;2.15;;;;;;;;;;5076757;28;20213;-47
2023/09/16 02:29:35;;;;;;;5.75;2.25;;;;;;;;;;5076755;28;20203;-50
2023/09/16 02:32:03;;;;;;;7.82;1.77;;;;;;;;;;5075946;28;20597;-46
2023/09/16 02:34:35;;;;;;;3.80;2.30;;;;;;;;;;5076992;28;20230;-46
2023/09/16 02:37:02;;;;;;;4.63;2.20;;;;;;;;;;5077102;28;20207;-49
2023/09/16 02:39:30;;;;;;;2.78;1.90;;;;;;;;;;5075894;28;20199;-47
2023/09/16 02:41:57;;;;;;;6.28;2.67;;;;;;;;;;5075313;28;20241;-47
2023/09/16 02:44:25;;;;;;;4.13;2.30;;;;;;;;;;5075899;28;20199;-49
2023/09/16 02:46:52;;;;;;;4.28;2.28;;;;;;;;;;5076840;28;20242;-47
2023/09/16 02:49:20;;;;;;;4.80;2.40;;;;;;;;;;5075349;28;20210;-48
2023/09/16 02:51:48;;;;;;;5.05;2.08;;;;;;;;;;5075211;28;20203;-48
2023/09/16 02:54:16;;;;;;;3.83;2.30;;;;;;;;;;5075196;28;20223;-49
2023/09/16 02:56:43;;;;;;;7.00;2.60;;;;;;;;;;5075620;28;20672;-48
2023/09/16 02:59:12;;;;;;;4.88;2.17;;;;;;;;;;5074757;28;20214;-49
2023/09/16 03:01:39;;;;;;;4.88;1.88;;;;;;;;;;5074483;28;20202;-47
2023/09/16 03:04:07;;;;;;;3.42;2.17;;;;;;;;;;5074368;28;20207;-50
2023/09/16 03:06:34;;;;;;;4.55;2.50;;;;;;;;;;5074932;28;20287;-47
2023/09/16 03:09:03;;;;;;;4.82;2.75;;;;;;;;;;5075901;28;20656;-46
2023/09/16 03:11:30;;;;;;;4.10;2.45;;;;;;;;;;5074655;28;20261;-46
2023/09/16 03:13:58;;;;;;;5.07;2.65;;;;;;;;;;5074668;28;20277;-46
2023/09/16 03:16:25;;;;;;;4.70;2.35;;;;;;;;;;5076095;28;20228;-47
2023/09/16 03:18:56;;;;;;;3.22;2.13;;;;;;;;;;5074896;28;20192;-50
2023/09/16 03:21:25;;;;;;;4.20;2.45;;;;;;;;;;5074417;28;20227;-47
2023/09/16 03:24:01;;;;;;;5.13;2.67;;;;;;;;;;5074937;28;20203;-47
2023/09/16 03:26:29;;;;;;;7.55;2.45;;;;;;;;;;5074582;28;20195;-46
2023/09/16 03:28:57;;;;;;;5.32;2.47;;;;;;;;;;5074441;28;20203;-48
2023/09/16 03:31:27;;;;;;;5.03;2.42;;;;;;;;;;5075714;28;20211;-48
2023/09/16 03:33:57;;;;;;;7.30;2.58;;;;;;;;;;5073768;28;20227;-49
2023/09/16 03:36:25;;;;;;;4.38;2.20;;;;;;;;;;5075600;28;20203;-47
2023/09/16 03:38:52;;;;;;;4.45;1.75;;;;;;;;;;5075676;28;20230;-47
2023/09/16 03:41:20;;;;;;;5.72;2.47;;;;;;;;;;5074073;28;20207;-47
2023/09/16 03:43:53;;;;;;;5.35;2.75;;;;;;;;;;5074086;28;20203;-47
2023/09/16 03:46:23;;;;;;;5.63;2.80;;;;;;;;;;5074056;28;20664;-47
2023/09/16 03:48:53;;;;;;;3.70;2.22;;;;;;;;;;5074040;28;20207;-47
2023/09/16 03:51:22;;;;;;;3.53;2.00;;;;;;;;;;5057186;28;20211;-54
2023/09/16 03:53:50;;;;;;;3.08;1.92;;;;;;;;;;5073648;28;20624;-48
2023/09/16 03:56:17;;;;;;;3.78;2.05;;;;;;;;;;5073730;28;20196;-52
2023/09/16 03:58:45;;;;;;;3.67;2.25;;;;;;;;;;5073755;28;20683;-50
2023/09/16 04:01:13;;;;;;;5.00;2.63;;;;;;;;;;5074007;28;20214;-47
2023/09/16 04:03:40;;;;;;;5.88;2.33;;;;;;;;;;5073564;28;20663;-46
2023/09/16 04:06:07;;;;;;;4.40;2.30;;;;;;;;;;5073714;28;20323;-47
2023/09/16 04:08:37;;;;;;;6.20;2.90;;;;;;;;;;5074987;28;20203;-46
2023/09/16 04:11:09;;;;;;;6.50;2.50;;;;;;;;;;5073648;28;20291;-46
2023/09/16 04:13:37;;;;;;;5.30;2.72;;;;;;;;;;5073362;28;20656;-46
2023/09/16 04:16:04;;;;;;;3.75;2.42;;;;;;;;;;5073599;28;20199;-47
2023/09/16 04:18:32;;;;;;;5.50;2.47;;;;;;;;;;5073365;28;20611;-46
2023/09/16 04:21:02;;;;;;;3.90;2.45;;;;;;;;;;5073610;28;20290;-46
2023/09/16 04:23:30;;;;;;;5.13;2.40;;;;;;;;;;5074717;28;20211;-48
2023/09/16 04:26:00;;;;;;;6.22;2.65;;;;;;;;;;5073595;28;20248;-48
2023/09/16 04:28:29;;;;;;;6.03;2.95;;;;;;;;;;5073230;28;20207;-48
2023/09/16 04:30:58;;;;;;;6.47;2.75;;;;;;;;;;5073551;28;20203;-46
2023/09/16 04:33:29;;;;;;;5.70;2.67;;;;;;;;;;5073144;28;20211;-47
2023/09/16 04:35:56;;;;;;;5.13;2.60;;;;;;;;;;5074480;28;20207;-48
2023/09/16 04:38:25;;;;;;;4.22;2.40;;;;;;;;;;5074674;28;20203;-47
2023/09/16 04:40:55;;;;;;;4.75;2.70;;;;;;;;;;5073240;28;20226;-48
2023/09/16 04:43:25;;;;;;;5.35;3.03;;;;;;;;;;5073235;28;20207;-46
2023/09/16 04:45:54;;;;;;;5.10;2.60;;;;;;;;;;5072561;28;20203;-47
2023/09/16 04:48:43;;;;;;;3.75;2.28;;;;;;;;;;5072816;28;20219;-46
2023/09/16 04:51:10;;;;;;;7.47;2.38;;;;;;;;;;5073279;28;20235;-48
2023/09/16 04:53:37;;;;;;;5.40;2.42;;;;;;;;;;5073251;28;20239;-47
2023/09/16 04:56:09;;;;;;;7.03;2.50;;;;;;;;;;5073233;28;20203;-48
2023/09/16 04:58:40;;;;;;;3.83;2.58;;;;;;;;;;5057221;28;20206;-48
2023/09/16 05:01:07;;;;;;;6.97;2.72;;;;;;;;;;5072830;28;20644;-46
2023/09/16 05:03:36;;;;;;;9.77;2.55;;;;;;;;;;5074043;28;20194;-47
2023/09/16 05:06:03;;;;;;;3.80;2.40;;;;;;;;;;5050553;28;20693;-48
2023/09/16 05:08:35;;;;;;;4.55;2.47;;;;;;;;;;5066103;28;20284;-46
2023/09/16 05:11:03;;;;;;;5.72;2.75;;;;;;;;;;5071612;28;20230;-49
2023/09/16 05:13:39;;;;;;;4.95;2.88;;;;;;;;;;5071905;28;20257;-46
2023/09/16 05:16:09;;;;;;;3.20;2.33;;;;;;;;;;5071169;28;20659;-46
2023/09/16 05:18:37;;;;;;;6.63;2.63;;;;;;;;;;5071831;28;20280;-47
2023/09/16 05:21:04;;;;;;;5.32;2.92;;;;;;;;;;5071455;28;20655;-48
2023/09/16 05:23:33;;;;;;;4.20;2.22;;;;;;;;;;5105635;28;20227;-48
2023/09/16 05:26:04;;;;;;;4.93;2.60;;;;;;;;;;5071640;28;20582;-48
2023/09/16 05:28:33;;;;;;;4.20;2.58;;;;;;;;;;5071791;28;20223;-46
2023/09/16 05:31:03;;;;;;;5.72;2.70;;;;;;;;;;5060075;28;20215;-53
2023/09/16 05:33:34;;;;;;;4.20;2.40;;;;;;;;;;5055322;28;20272;-47
2023/09/16 05:36:02;;;;;;;4.65;2.58;;;;;;;;;;5071286;28;20223;-47
2023/09/16 05:38:29;;;;;;;4.32;2.75;;;;;;;;;;5060558;28;20277;-46
2023/09/16 05:40:56;;;;;;;6.00;2.92;;;;;;;;;;5070841;28;20250;-46
2023/09/16 05:43:24;;;;;;;8.32;3.05;;;;;;;;;;5063270;28;20764;-46
2023/09/16 05:45:52;;;;;;;4.22;2.35;;;;;;;;;;5053895;28;20622;-50
2023/09/16 05:48:22;;;;;;;3.63;2.70;;;;;;;;;;5051442;28;20227;-49
2023/09/16 05:50:57;;;;;;;5.55;2.70;;;;;;;;;;5051517;28;20711;-49
2023/09/16 05:53:27;;;;;;;5.55;2.88;;;;;;;;;;5055071;28;20250;-48
2023/09/16 05:56:01;;;;;;;6.32;2.85;;;;;;;;;;5069911;28;20262;-46
2023/09/16 05:58:29;;;;;;;3.90;2.70;;;;;;;;;;5070417;28;20234;-50
2023/09/16 06:00:59;;;;;;;6.03;2.58;;;;;;;;;;5071257;28;20219;-48
2023/09/16 06:03:28;;;;;;;5.45;2.95;;;;;;;;;;5070510;28;20234;-48
2023/09/16 06:05:59;;;;;;;4.72;2.75;;;;;;;;;;5072217;28;20227;-51
2023/09/16 06:08:26;;;;;;;5.40;2.78;;;;;;;;;;5071502;28;20235;-47
2023/09/16 06:10:55;;;;;;;6.10;3.03;;;;;;;;;;5071310;28;20227;-46
2023/09/16 06:13:25;;;;;;;4.25;2.70;;;;;;;;;;5071339;28;20228;-47
2023/09/16 06:15:53;;;;;;;3.55;2.63;;;;;;;;;;5067630;28;20236;-51
2023/09/16 06:18:23;;;;;;;5.15;2.70;;;;;;;;;;5054077;28;20227;-46
2023/09/16 06:20:50;;;;;;;5.20;2.65;;;;;;;;;;5069050;28;20224;-47
2023/09/16 06:23:17;;;;;;;5.05;2.70;;;;;;;;;;5072580;28;20287;-45
2023/09/16 06:25:47;;;;;;;3.97;2.47;;;;;;;;;;5070461;28;20268;-49
2023/09/16 06:28:14;;;;;;;4.22;2.55;;;;;;;;;;5055509;28;20590;-49
2023/09/16 06:30:41;;;;;;;2.97;2.13;;;;;;;;;;5071129;28;20199;-50
2023/09/16 06:33:10;;;;;;;4.05;2.40;;;;;;;;;;5053649;28;20219;-47
2023/09/16 06:35:37;;;;;;;4.72;2.88;;;;;;;;;;5051622;28;20251;-49
2023/09/16 06:38:04;;;;;;;4.57;2.65;;;;;;;;;;5052563;28;20208;-46
2023/09/16 06:40:31;;;;;;;3.65;2.35;;;;;;;;;;5051742;28;20612;-47
2023/09/16 06:42:59;;;;;;;4.68;2.30;;;;;;;;;;5051631;28;20216;-47
2023/09/16 06:45:28;;;;;;;3.60;2.50;;;;;;;;;;5068310;28;20687;-47
2023/09/16 06:47:56;;;;;;;5.25;1.73;;;;;;;;;;5052760;28;20334;-47
2023/09/16 06:50:23;;;;;;;3.08;1.88;;;;;;;;;;5053006;28;20211;-47
2023/09/16 06:52:50;;;;;;;3.15;1.80;;;;;;;;;;5052950;28;20212;-50
2023/09/16 06:55:17;;;;;;;2.53;1.95;;;;;;;;;;5064526;28;20632;-53
2023/09/16 06:57:45;;;;;;;4.65;2.80;;;;;;;;;;5071951;28;20560;-49
2023/09/16 07:00:13;;;;;;;2.97;2.45;;;;;;;;;;5072178;28;20205;-51
2023/09/16 07:02:40;;;;;;;4.53;2.15;;;;;;;;;;5072483;28;20218;-51
2023/09/16 07:05:07;;;;;;;2.92;2.00;;;;;;;;;;5072475;28;20214;-50
2023/09/16 07:07:35;;;;;;;2.88;2.05;;;;;;;;;;5072262;28;20191;-54
2023/09/16 07:10:02;;;;;;;37.70;14.55;;;;;;;;;;5075397;28;20204;-50
2023/09/16 07:12:29;;;;;;;27.73;12.60;;;;;;;;;;5075827;28;20203;-54
2023/09/16 07:14:56;;;;;;;9.07;4.32;;;;;;;;;;5075401;28;20306;-51
2023/09/16 07:17:23;;;;;;;7.55;3.35;;;;;;;;;;5075902;28;20231;-54
2023/09/16 07:19:50;;;;;;;43.25;19.25;;;;;;;;;;5075576;28;20200;-49
2023/09/16 07:22:20;;;;;;;32.95;15.75;;;;;;;;;;5075773;28;20207;-49
2023/09/16 07:24:47;;;;;;;25.63;12.23;;;;;;;;;;5075441;28;20264;-53
2023/09/16 07:27:15;;;;;;;44.63;20.02;;;;;;;;;;5075265;28;20195;-53
2023/09/16 07:29:42;;;;;;;11.10;4.45;;;;;;;;;;5075358;28;20230;-52
2023/09/16 07:32:10;;;;;;;3.92;2.15;;;;;;;;;;5075574;28;20594;-52
2023/09/16 07:34:37;;;;;;;6.45;3.00;;;;;;;;;;5075265;28;20229;-51
2023/09/16 07:37:04;;;;;;;12.40;4.88;;;;;;;;;;5075520;28;20203;-52
2023/09/16 07:39:31;;;;;;;3.60;2.00;;;;;;;;;;5075499;28;20206;-53
2023/09/16 07:41:58;;;;;;;8.05;3.70;;;;;;;;;;5075355;28;20191;-53
2023/09/16 07:44:26;;;;;;;7.18;3.08;;;;;;;;;;5074938;28;20214;-52
2023/09/16 07:46:54;;;;;;;15.23;5.70;;;;;;;;;;5075215;28;20191;-54
2023/09/16 07:49:21;;;;;;;5.75;2.25;;;;;;;;;;5075316;28;20551;-53
2023/09/16 07:51:49;;;;;;;5.88;2.47;;;;;;;;;;5073998;28;20207;-51
2023/09/16 07:54:16;;;;;;;3.05;2.13;;;;;;;;;;5074992;28;20204;-52
2023/09/16 07:56:43;;;;;;;2.22;1.67;;;;;;;;;;5074361;28;20226;-50
2023/09/16 07:59:11;;;;;;;2.55;1.90;;;;;;;;;;5075149;28;20203;-50
2023/09/16 08:01:38;;;;;;;2.90;1.88;;;;;;;;;;5075132;28;20276;-49
2023/09/16 08:04:05;;;;;;;2.17;1.55;;;;;;;;;;5074954;28;20195;-52
2023/09/16 08:06:33;;;;;;;4.72;1.83;;;;;;;;;;5074586;28;20546;-52
2023/09/16 08:09:00;;;;;;;6.15;2.10;;;;;;;;;;5074356;28;20282;-52
2023/09/16 08:11:28;;;;;;;2.75;1.73;;;;;;;;;;5074582;28;20597;-49
2023/09/16 08:13:54;;;;;;;2.33;1.58;;;;;;;;;;5074460;28;20544;-50
2023/09/16 08:16:22;;;;;;;3.65;2.08;;;;;;;;;;5074609;28;20292;-52
2023/09/16 08:18:50;;;;;;;3.92;1.90;;;;;;;;;;5074432;28;20203;-49
2023/09/16 08:21:18;;;;;;;3.58;2.03;;;;;;;;;;5059570;28;20195;-51
2023/09/16 08:23:45;;;;;;;2.03;1.50;;;;;;;;;;5073982;28;20199;-50
2023/09/16 08:26:12;;;;;;;6.75;2.28;;;;;;;;;;5073321;28;20264;-53
2023/09/16 08:28:39;;;;;;;3.80;1.83;;;;;;;;;;5074590;28;20210;-50
2023/09/16 08:31:07;;;;;;;3.25;1.90;;;;;;;;;;5074078;28;20215;-50
2023/09/16 08:33:34;;;;;;;3.38;1.92;;;;;;;;;;5073512;28;20234;-46
2023/09/16 08:36:01;;;;;;;2.20;1.77;;;;;;;;;;5072570;28;20235;-51
2023/09/16 08:38:30;;;;;;;6.20;2.92;;;;;;;;;;5071800;28;20704;-52
2023/09/16 08:41:12;;;;;;;3.70;2.08;;;;;;;;;;5073103;28;20219;-50
2023/09/16 08:43:40;;;;;;;6.53;1.83;;;;;;;;;;5072725;28;20472;-54
2023/09/16 08:46:16;;;;;;;4.38;1.90;;;;;;;;;;5070968;28;20265;-51
2023/09/16 08:48:46;;;;;;;4.57;2.47;;;;;;;;;;5073535;28;20183;-50
2023/09/16 08:51:17;;;;;;;6.25;2.00;;;;;;;;;;5074021;28;20672;-53
2023/09/16 08:53:45;;;;;;;5.60;2.30;;;;;;;;;;5073665;28;20207;-53
2023/09/16 08:56:13;;;;;;;2.33;1.70;;;;;;;;;;5072581;28;20227;-53
2023/09/16 08:58:41;;;;;;;4.47;2.10;;;;;;;;;;5072385;28;20226;-50
2023/09/16 09:01:11;;;;;;;7.63;1.98;;;;;;;;;;5074029;28;20207;-52
2023/09/16 09:03:39;;;;;;;3.47;2.00;;;;;;;;;;5073187;28;20223;-54
2023/09/16 09:06:07;;;;;;;3.95;2.22;;;;;;;;;;5073684;28;20203;-50
2023/09/16 09:08:36;;;;;;;3.45;2.20;;;;;;;;;;5072327;28;20199;-50
2023/09/16 09:11:04;;;;;;;2.88;1.98;;;;;;;;;;5073705;28;20257;-51
2023/09/16 09:13:33;;;;;;;8.45;2.38;;;;;;;;;;5073261;28;20207;-50
2023/09/16 09:16:03;;;;;;;5.88;2.17;;;;;;;;;;5072060;28;20621;-52
2023/09/16 09:18:32;;;;;;;5.90;1.98;;;;;;;;;;5072501;28;20187;-55
2023/09/16 09:21:00;;;;;;;4.55;2.15;;;;;;;;;;5073458;28;20742;-50
2023/09/16 09:23:29;;;;;;;4.30;2.10;;;;;;;;;;5071651;28;20203;-50
2023/09/16 09:25:57;;;;;;;2.65;2.10;;;;;;;;;;5072172;28;20184;-51
2023/09/16 09:28:27;;;;;;;3.10;2.42;;;;;;;;;;5072110;28;20737;-54
2023/09/16 09:30:57;;;;;;;5.57;2.30;;;;;;;;;;5072923;28;20696;-48
2023/09/16 09:33:26;;;;;;;3.15;2.05;;;;;;;;;;5073134;28;20196;-48
2023/09/16 09:36:13;;;;;;;3.72;2.33;;;;;;;;;;5072834;28;20229;-51
2023/09/16 09:38:42;;;;;;;2.83;2.10;;;;;;;;;;5051911;28;20188;-52
2023/09/16 09:41:10;;;;;;;3.05;2.15;;;;;;;;;;5052592;28;20211;-49
2023/09/16 09:43:37;;;;;;;2.80;2.20;;;;;;;;;;5071895;28;20204;-50
2023/09/16 09:46:04;;;;;;;3.85;2.00;;;;;;;;;;5072162;28;20621;-53
2023/09/16 09:48:33;;;;;;;3.28;2.30;;;;;;;;;;5072923;28;20340;-55
2023/09/16 09:51:00;;;;;;;10.20;2.15;;;;;;;;;;5073051;28;20210;-52
2023/09/16 09:53:28;;;;;;;5.47;2.17;;;;;;;;;;5071645;28;20199;-53
2023/09/16 09:55:55;;;;;;;3.75;2.38;;;;;;;;;;5072861;28;20296;-52
2023/09/16 09:58:24;;;;;;;3.17;2.17;;;;;;;;;;5071283;28;20424;-53
2023/09/16 10:00:52;;;;;;;5.13;2.60;;;;;;;;;;5072683;28;20261;-50
2023/09/16 10:03:22;;;;;;;2.63;1.95;;;;;;;;;;5072136;28;20202;-52
2023/09/16 10:05:50;;;;;;;3.42;2.30;;;;;;;;;;5072516;28;20233;-54
2023/09/16 10:08:17;;;;;;;3.15;2.15;;;;;;;;;;5072685;28;20318;-53
2023/09/16 10:10:46;;;;;;;3.67;2.15;;;;;;;;;;5072811;28;20805;-47
2023/09/16 10:13:15;;;;;;;5.75;2.30;;;;;;;;;;5071762;28;20253;-54
2023/09/16 10:15:42;;;;;;;2.75;1.80;;;;;;;;;;5070964;28;20234;-53
2023/09/16 10:18:10;;;;;;;7.10;3.40;;;;;;;;;;5071297;28;20239;-51
2023/09/16 10:20:38;;;;;;;4.25;2.70;;;;;;;;;;5072815;28;20209;-50
2023/09/16 10:23:06;;;;;;;7.85;3.10;;;;;;;;;;5072338;28;20195;-50
2023/09/16 10:25:34;;;;;;;2.90;1.88;;;;;;;;;;5072140;28;20207;-53
2023/09/16 10:28:07;;;;;;;8.30;2.97;;;;;;;;;;5072097;28;20215;-51
2023/09/16 10:30:36;;;;;;;4.60;2.78;;;;;;;;;;5072383;28;20211;-53
2023/09/16 10:33:08;;;;;;;4.80;2.47;;;;;;;;;;5072092;28;20656;-53
2023/09/16 10:35:40;;;;;;;2.85;2.00;;;;;;;;;;5071642;28;20222;-52
2023/09/16 10:38:10;;;;;;;3.53;1.95;;;;;;;;;;5072852;28;20219;-51
2023/09/16 10:40:39;;;;;;;4.38;1.90;;;;;;;;;;5072606;28;20196;-48
2023/09/16 10:43:06;;;;;;;2.75;1.88;;;;;;;;;;5071430;28;20199;-47
2023/09/16 10:45:34;;;;;;;3.17;2.33;;;;;;;;;;5076747;28;20261;-47
2023/09/16 10:48:01;;;;;;;3.78;2.25;;;;;;;;;;5076733;28;20213;-47
2023/09/16 10:50:35;;;;;;;3.17;2.50;;;;;;;;;;5076139;28;20203;-47
2023/09/16 10:53:11;;;;;;;8.82;2.20;;;;;;;;;;5076386;28;20250;-47
2023/09/16 10:55:44;;;;;;;3.78;2.20;;;;;;;;;;5076467;28;20314;-47
2023/09/16 10:58:18;;;;;;;5.00;2.50;;;;;;;;;;5076635;28;20249;-48
2023/09/16 11:00:55;;;;;;;3.08;2.00;;;;;;;;;;5076598;28;20210;-47
2023/09/16 11:03:46;;;;;;;3.65;2.50;;;;;;;;;;5075356;28;20681;-48
2023/09/16 11:06:14;;;;;;;3.88;2.15;;;;;;;;;;5054341;28;20228;-47
2023/09/16 11:08:41;;;;;;;4.03;2.05;;;;;;;;;;5054655;28;20231;-49
2023/09/16 11:11:08;;;;;;;5.60;2.20;;;;;;;;;;5054289;28;20228;-47
2023/09/16 11:13:36;;;;;;;4.78;2.40;;;;;;;;;;5062459;28;20234;-46
2023/09/16 11:16:03;;;;;;;7.70;2.65;;;;;;;;;;5073332;28;20238;-48
2023/09/16 11:18:31;;;;;;;3.55;2.15;;;;;;;;;;5072714;28;20218;-47
2023/09/16 11:20:58;;;;;;;6.68;2.58;;;;;;;;;;5075314;28;20223;-46
2023/09/16 11:23:25;;;;;;;6.88;2.35;;;;;;;;;;5074604;28;20243;-46
2023/09/16 11:25:55;;;;;;;4.65;2.30;;;;;;;;;;5074505;28;20223;-47
2023/09/16 11:28:22;;;;;;;2.80;2.15;;;;;;;;;;5074697;28;20223;-47
2023/09/16 11:31:01;;;;;;;3.30;2.42;;;;;;;;;;5074691;28;20230;-48
2023/09/16 11:33:39;;;;;;;3.47;2.20;;;;;;;;;;5074877;28;20602;-46
2023/09/16 11:36:11;;;;;;;4.28;2.33;;;;;;;;;;5075088;28;20824;-47
2023/09/16 11:38:41;;;;;;;3.47;2.30;;;;;;;;;;5075311;28;20227;-47
2023/09/16 11:41:10;;;;;;;4.07;2.20;;;;;;;;;;5073315;28;20215;-47
2023/09/16 11:43:38;;;;;;;3.00;2.13;;;;;;;;;;5074511;28;20555;-51
2023/09/16 11:46:06;;;;;;;3.95;2.35;;;;;;;;;;5073913;28;20223;-48
2023/09/16 11:48:47;;;;;;;3.95;1.95;;;;;;;;;;5074165;28;20327;-48
2023/09/16 11:51:16;;;;;;;3.90;2.45;;;;;;;;;;5053861;28;20696;-47
2023/09/16 11:53:45;;;;;;;4.43;2.72;;;;;;;;;;5051813;28;20254;-49
2023/09/16 11:56:16;;;;;;;3.03;2.33;;;;;;;;;;5052795;28;20714;-48
2023/09/16 11:58:44;;;;;;;6.93;2.90;;;;;;;;;;5035506;28;20254;-49
2023/09/16 12:01:12;;;;;;;3.15;2.17;;;;;;;;;;5053668;28;20735;-49
2023/09/16 12:03:42;;;;;;;17.13;2.35;;;;;;;;;;5053947;28;20306;-48
2023/09/16 12:06:10;;;;;;;2.28;1.92;;;;;;;;;;5053234;28;20235;-48
2023/09/16 12:08:39;;;;;;;3.67;2.20;;;;;;;;;;5054513;28;20307;-48
2023/09/16 12:11:07;;;;;;;3.47;2.15;;;;;;;;;;5053308;28;20254;-48
2023/09/16 12:13:34;;;;;;;3.15;2.20;;;;;;;;;;5054737;28;20278;-48
2023/09/16 12:16:01;;;;;;;4.03;2.30;;;;;;;;;;5066609;28;20235;-52
2023/09/16 12:18:29;;;;;;;2.38;2.00;;;;;;;;;;5074180;28;20223;-50
2023/09/16 12:20:56;;;;;;;3.75;2.13;;;;;;;;;;5073994;28;20231;-47
2023/09/16 12:23:26;;;;;;;3.53;2.10;;;;;;;;;;5073017;28;20227;-47
2023/09/16 12:25:54;;;;;;;4.22;2.38;;;;;;;;;;5073912;28;20232;-52
2023/09/16 12:28:22;;;;;;;3.45;2.63;;;;;;;;;;5074184;28;20226;-49
2023/09/16 12:30:55;;;;;;;5.03;2.45;;;;;;;;;;5073752;28;20624;-48
2023/09/16 12:33:23;;;;;;;5.65;2.33;;;;;;;;;;5073963;28;20227;-55
2023/09/16 12:35:52;;;;;;;4.32;2.30;;;;;;;;;;5073615;28;20239;-59
2023/09/16 12:38:19;;;;;;;2.83;2.28;;;;;;;;;;5074290;28;20227;-53
2023/09/16 12:40:48;;;;;;;4.28;2.33;;;;;;;;;;5073529;28;20597;-55
2023/09/16 12:43:15;;;;;;;4.78;2.10;;;;;;;;;;5072848;28;20227;-54
2023/09/16 12:45:43;;;;;;;6.70;2.70;;;;;;;;;;5073594;28;20230;-55
2023/09/16 12:48:10;;;;;;;4.78;2.05;;;;;;;;;;5073475;28;20251;-54
2023/09/16 12:50:38;;;;;;;2.90;2.20;;;;;;;;;;5073734;28;20301;-56
2023/09/16 12:53:05;;;;;;;3.83;2.33;;;;;;;;;;5072284;28;20219;-55
2023/09/16 12:55:32;;;;;;;3.20;2.25;;;;;;;;;;5073786;28;20234;-54
2023/09/16 12:58:00;;;;;;;3.03;2.10;;;;;;;;;;5072099;28;20215;-52
2023/09/16 13:00:27;;;;;;;5.13;2.60;;;;;;;;;;5073615;28;20219;-54
2023/09/16 13:02:58;;;;;;;6.35;2.30;;;;;;;;;;5072687;28;20222;-53
2023/09/16 13:05:27;;;;;;;4.38;2.28;;;;;;;;;;5073860;28;20203;-51
2023/09/16 13:07:57;;;;;;;3.63;1.90;;;;;;;;;;5073507;28;20219;-55
2023/09/16 13:10:25;;;;;;;3.50;2.30;;;;;;;;;;5074506;28;20210;-54
2023/09/16 13:12:52;;;;;;;4.45;2.13;;;;;;;;;;5073963;28;20675;-54
2023/09/16 13:15:23;;;;;;;4.97;2.78;;;;;;;;;;5073789;28;20199;-54
2023/09/16 13:18:04;;;;;;;4.40;2.30;;;;;;;;;;5072672;28;20246;-59
2023/09/16 13:20:36;;;;;;;4.43;2.55;;;;;;;;;;5074287;28;20183;-56
2023/09/16 13:23:03;;;;;;;3.13;2.20;;;;;;;;;;5074103;28;20192;-54
2023/09/16 13:25:34;;;;;;;3.08;1.80;;;;;;;;;;5074088;28;20606;-51
2023/09/16 13:28:06;;;;;;;6.75;2.13;;;;;;;;;;5073773;28;20319;-56
2023/09/16 13:30:38;;;;;;;3.45;1.90;;;;;;;;;;5074148;28;20191;-52
2023/09/16 13:33:07;;;;;;;4.28;2.17;;;;;;;;;;5074040;28;20210;-52
2023/09/16 13:35:40;;;;;;;5.68;2.15;;;;;;;;;;5073882;28;20203;-50
2023/09/16 13:38:11;;;;;;;2.80;2.17;;;;;;;;;;5072326;28;20191;-52
2023/09/16 13:40:39;;;;;;;5.82;2.20;;;;;;;;;;5073223;28;20187;-53
2023/09/16 13:43:06;;;;;;;2.72;2.08;;;;;;;;;;5072067;28;20199;-50
2023/09/16 13:45:35;;;;;;;4.65;2.05;;;;;;;;;;5069640;28;20203;-57
2023/09/16 13:48:21;;;;;;;3.30;2.15;;;;;;;;;;5071558;28;20215;-58
2023/09/16 13:50:49;;;;;;;4.22;2.05;;;;;;;;;;5069512;28;20196;-59
2023/09/16 13:53:18;;;;;;;3.50;2.15;;;;;;;;;;5071774;28;20229;-58
2023/09/16 13:55:52;;;;;;;5.28;2.25;;;;;;;;;;5069429;28;20204;-56
2023/09/16 13:58:20;;;;;;;7.28;2.17;;;;;;;;;;5070424;28;20233;-57
2023/09/16 14:00:48;;;;;;;4.10;2.35;;;;;;;;;;5070278;28;20202;-56
2023/09/16 14:03:16;;;;;;;4.72;2.72;;;;;;;;;;5078991;28;20195;-59
2023/09/16 14:05:47;;;;;;;6.82;2.50;;;;;;;;;;5082085;28;20278;-58
2023/09/16 14:08:14;;;;;;;3.53;2.45;;;;;;;;;;5081162;28;20213;-57
2023/09/16 14:10:42;;;;;;;5.68;2.40;;;;;;;;;;5082314;28;20264;-56
2023/09/16 14:13:09;;;;;;;4.57;2.00;;;;;;;;;;5081345;28;20195;-58
2023/09/16 14:15:40;;;;;;;8.80;2.55;;;;;;;;;;5078868;28;20287;-58
2023/09/16 14:18:08;;;;;;;5.13;2.38;;;;;;;;;;5082398;28;20563;-58
2023/09/16 14:20:36;;;;;;;2.80;1.98;;;;;;;;;;5082904;28;20202;-58
2023/09/16 14:23:05;;;;;;;6.20;2.00;;;;;;;;;;5075194;28;20731;-58
2023/09/16 14:25:33;;;;;;;4.85;2.10;;;;;;;;;;5073202;28;20268;-55
2023/09/16 14:28:02;;;;;;;5.75;2.30;;;;;;;;;;5075347;28;20195;-61
2023/09/16 14:30:31;;;;;;;17.55;2.47;;;;;;;;;;5072545;28;20199;-55
2023/09/16 14:32:59;;;;;;;3.47;1.85;;;;;;;;;;5075662;28;20195;-59
2023/09/16 14:35:33;;;;;;;3.88;2.45;;;;;;;;;;5075005;28;20278;-58
2023/09/16 14:38:04;;;;;;;4.65;2.17;;;;;;;;;;5075085;28;20207;-55
2023/09/16 14:40:32;;;;;;;3.13;2.13;;;;;;;;;;5074773;28;20192;-58
2023/09/16 14:43:00;;;;;;;3.80;2.35;;;;;;;;;;5075296;28;20196;-54
2023/09/16 14:45:27;;;;;;;7.97;2.72;;;;;;;;;;5074992;28;20195;-49
2023/09/16 14:47:55;;;;;;;3.15;2.03;;;;;;;;;;5074926;28;20561;-52
2023/09/16 14:50:22;;;;;;;3.10;2.03;;;;;;;;;;5075108;28;20203;-57
2023/09/16 14:52:49;;;;;;;4.82;2.33;;;;;;;;;;5075110;28;20200;-59